createdAt,value
2023-05-04T00:00:24.479Z,67.0
2023-05-04T00:12:24.534Z,69.4
2023-05-04T00:24:24.527Z,68.5
2023-05-04T00:36:24.523Z,67.6
2023-05-04T00:48:24.532Z,67.0
2023-05-04T01:00:24.429Z,66.9
2023-05-04T01:12:24.537Z,67.4
2023-05-04T01:24:24.421Z,67.6
2023-05-04T01:36:24.934Z,67.1
2023-05-04T01:48:24.881Z,68.6
2023-05-04T02:00:24.539Z,69.6
2023-05-04T02:12:24.472Z,70.4
2023-05-04T02:24:24.497Z,69.7
2023-05-04T02:36:24.630Z,68.5
2023-05-04T02:48:24.440Z,69.0
2023-05-04T03:00:24.443Z,69.9
2023-05-04T03:12:24.471Z,69.3
2023-05-04T03:24:24.502Z,68.2
2023-05-04T03:36:24.525Z,68.0
2023-05-04T03:48:24.482Z,67.7
2023-05-04T04:00:24.423Z,67.2
2023-05-04T04:12:24.453Z,66.3
2023-05-04T04:24:24.547Z,67.2
2023-05-04T04:36:24.524Z,67.6
2023-05-04T04:48:24.538Z,67.3
2023-05-04T05:00:24.554Z,68.0
2023-05-04T05:12:24.535Z,67.7
2023-05-04T05:24:24.518Z,67.4
2023-05-04T05:36:24.570Z,68.3
2023-05-04T05:48:24.548Z,68.8
2023-05-04T06:00:24.425Z,66.0
2023-05-04T06:12:24.669Z,63.8
2023-05-04T06:24:24.554Z,62.2
2023-05-04T06:36:24.549Z,59.7
2023-05-04T06:48:24.422Z,58.4
2023-05-04T07:00:24.494Z,58.8
2023-05-04T07:12:24.509Z,58.9
2023-05-04T07:24:24.519Z,56.9
2023-05-04T07:36:24.424Z,57.6
2023-05-04T07:48:26.438Z,55.2
2023-05-04T08:00:24.581Z,52.1
2023-05-04T08:12:24.516Z,54.8
2023-05-04T08:24:24.536Z,54.0
2023-05-04T08:36:24.463Z,52.4
2023-05-04T08:48:24.549Z,47.4
2023-05-04T09:00:24.570Z,47.1
2023-05-04T09:12:24.532Z,45.6
2023-05-04T09:24:24.426Z,45.0
2023-05-04T09:36:24.554Z,42.5
2023-05-04T09:48:24.541Z,40.8
2023-05-04T10:00:24.535Z,41.5
2023-05-04T10:12:24.542Z,43.1
2023-05-04T10:24:24.437Z,41.1
2023-05-04T10:36:24.542Z,40.1
2023-05-04T10:48:24.531Z,40.3
2023-05-04T11:00:24.453Z,41.3
2023-05-04T11:12:24.549Z,40.8
2023-05-04T11:24:24.561Z,35.4
2023-05-04T11:36:24.513Z,34.9
2023-05-04T11:48:24.517Z,35.5
2023-05-04T12:00:24.521Z,34.6
2023-05-04T12:12:24.577Z,34.1
2023-05-04T12:24:24.536Z,34.0
2023-05-04T12:36:24.550Z,32.0
2023-05-04T12:48:24.521Z,30.1
2023-05-04T13:00:24.466Z,30.1
2023-05-04T13:12:24.532Z,27.7
2023-05-04T13:24:24.433Z,32.0
2023-05-04T13:36:24.535Z,31.4
2023-05-04T13:48:24.434Z,34.1
2023-05-04T14:00:24.490Z,33.9
2023-05-04T14:12:24.446Z,33.3
2023-05-04T14:24:24.431Z,35.4
2023-05-04T14:36:24.444Z,30.4
2023-05-04T14:48:24.439Z,34.2
2023-05-04T15:00:24.505Z,33.2
2023-05-04T15:12:24.439Z,36.2
2023-05-04T15:24:24.435Z,36.7
2023-05-04T15:36:24.550Z,33.2
2023-05-04T15:48:24.449Z,34.7
2023-05-04T16:00:24.482Z,31.2
2023-05-04T16:12:24.430Z,32.6
2023-05-04T16:24:24.810Z,35.7
2023-05-04T16:36:24.525Z,34.1
2023-05-04T16:48:24.486Z,34.1
2023-05-04T17:00:24.423Z,35.1
2023-05-04T17:12:24.460Z,35.7
2023-05-04T17:24:24.427Z,39.3
2023-05-04T17:36:24.441Z,38.3
2023-05-04T17:48:24.533Z,38.6
2023-05-04T18:00:24.442Z,39.5
2023-05-04T18:12:24.424Z,41.5
2023-05-04T18:24:24.503Z,42.0
2023-05-04T18:36:24.454Z,42.8
2023-05-04T18:48:24.757Z,42.3
2023-05-04T19:00:24.487Z,44.6
2023-05-04T19:12:24.446Z,47.8
2023-05-04T19:24:24.575Z,50.7
2023-05-04T19:36:24.454Z,50.5
2023-05-04T19:48:24.510Z,53.9
2023-05-04T20:00:24.467Z,55.9
2023-05-04T20:12:24.569Z,54.7
2023-05-04T20:24:24.529Z,55.3
2023-05-04T20:36:24.520Z,55.9
2023-05-04T20:48:24.480Z,57.2
2023-05-04T21:00:24.432Z,57.8
2023-05-04T21:12:24.424Z,58.5
2023-05-04T21:24:24.525Z,61.2
2023-05-04T21:36:24.423Z,63.2
2023-05-04T21:48:24.514Z,63.3
2023-05-04T22:00:24.515Z,63.1
2023-05-04T22:12:24.438Z,62.4
2023-05-04T22:24:24.524Z,60.0
2023-05-04T22:36:24.521Z,58.7
2023-05-04T22:48:24.526Z,58.2
2023-05-04T23:00:24.543Z,58.6
2023-05-04T23:12:24.529Z,59.0
2023-05-04T23:24:24.516Z,59.8
2023-05-04T23:36:24.514Z,59.6
2023-05-04T23:48:24.540Z,58.9
